Time;durP1;ratioP1;P1;durP2;ratioP2;P2;SDS_P1;SDS_P2;PMS_P1;PMS_P2;Temp;Humidity;BMP_temperature;BMP_pressure;BME280_temperature;BME280_humidity;BME280_pressure;Samples;Min_cycle;Max_cycle;Signal;HPM_P1;HPM_P2
2022/04/03 00:00:52;;;;;;;4.78;2.83;;;;;;;0.32;70.48;102249.41;5307857;28;20022;-69
2022/04/03 00:03:24;;;;;;;4.37;2.83;;;;;;;0.28;70.87;102253.78;5305726;28;20420;-68
2022/04/03 00:05:55;;;;;;;9.45;2.90;;;;;;;0.25;70.92;102256.41;5309293;28;20288;-72
2022/04/03 00:08:28;;;;;;;6.15;3.03;;;;;;;0.25;71.11;102253.81;5307343;28;20038;-68
2022/04/03 00:11:02;;;;;;;7.07;3.42;;;;;;;0.22;70.85;102246.97;5299170;28;20020;-68
2022/04/03 00:13:34;;;;;;;5.53;2.70;;;;;;;0.21;72.42;102245.28;5302565;28;20029;-70
2022/04/03 00:16:06;;;;;;;5.18;2.92;;;;;;;0.21;72.34;102254.75;5306939;28;20443;-69
2022/04/03 00:18:37;;;;;;;5.25;2.75;;;;;;;0.18;71.80;102250.50;5307843;28;20058;-68
2022/04/03 00:21:11;;;;;;;6.28;2.67;;;;;;;0.15;71.25;102247.13;5303806;28;20015;-68
2022/04/03 00:23:42;;;;;;;4.07;2.50;;;;;;;0.06;71.79;102248.16;5301927;28;20048;-69
2022/04/03 00:26:13;;;;;;;5.18;2.65;;;;;;;0.05;72.07;102245.63;5306413;28;20024;-68
2022/04/03 00:28:45;;;;;;;4.93;2.70;;;;;;;0.15;72.17;102248.00;5308256;28;20027;-68
2022/04/03 00:31:16;;;;;;;5.28;2.55;;;;;;;-0.01;72.08;102241.41;5308736;28;20032;-68
2022/04/03 00:33:47;;;;;;;4.90;2.63;;;;;;;0.05;73.98;102254.19;5310381;28;20499;-71
2022/04/03 00:36:19;;;;;;;4.68;2.42;;;;;;;-0.05;74.13;102247.50;5308857;28;20129;-70
2022/04/03 00:38:50;;;;;;;3.85;2.17;;;;;;;0.03;73.49;102249.94;5307643;28;20452;-71
2022/04/03 00:41:22;;;;;;;5.60;2.80;;;;;;;-0.03;74.49;102251.75;5310744;28;20016;-68
2022/04/03 00:43:54;;;;;;;3.65;2.30;;;;;;;-0.06;74.12;102251.81;5309358;28;20028;-69
2022/04/03 00:46:27;;;;;;;6.18;2.80;;;;;;;-0.11;74.26;102248.47;5307054;28;20484;-68
2022/04/03 00:48:59;;;;;;;9.05;3.50;;;;;;;-0.14;74.84;102253.69;5309946;28;20671;-69
2022/04/03 00:51:32;;;;;;;5.10;2.47;;;;;;;-0.22;74.89;102247.81;5309751;28;20045;-68
2022/04/03 00:54:04;;;;;;;5.32;2.60;;;;;;;-0.31;74.17;102241.06;5310394;28;20055;-68
2022/04/03 00:56:36;;;;;;;5.50;2.78;;;;;;;-0.28;75.04;102251.34;5307609;28;20545;-69
2022/04/03 00:59:09;;;;;;;4.30;2.28;;;;;;;-0.32;76.18;102247.13;5307192;28;20070;-69
2022/04/03 01:01:42;;;;;;;4.63;2.60;;;;;;;-0.32;76.45;102249.69;5311188;28;20457;-68
2022/04/03 01:04:13;;;;;;;4.65;2.90;;;;;;;-0.31;75.36;102253.97;5308850;28;20031;-68
2022/04/03 01:06:45;;;;;;;5.03;3.00;;;;;;;-0.37;74.88;102254.09;5305430;28;20016;-70
2022/04/03 01:09:16;;;;;;;4.35;2.50;;;;;;;-0.42;75.76;102243.00;5301486;28;20110;-68
2022/04/03 01:11:48;;;;;;;4.88;2.83;;;;;;;-0.36;78.55;102252.34;5307482;28;20161;-69
2022/04/03 01:14:32;;;;;;;4.63;2.63;;;;;;;-0.23;76.91;102240.09;5308206;28;20015;-68
2022/04/03 01:17:05;;;;;;;5.70;3.08;;;;;;;-0.45;76.53;102242.22;5311879;28;20073;-68
2022/04/03 01:19:40;;;;;;;6.53;2.45;;;;;;;-0.46;77.65;102241.34;5305865;28;20507;-68
2022/04/03 01:22:12;;;;;;;4.10;2.45;;;;;;;-0.47;77.58;102244.78;5309000;28;20985;-69
2022/04/03 01:24:44;;;;;;;4.32;2.50;;;;;;;-0.55;77.74;102246.66;5308908;28;20051;-69
2022/04/03 01:27:15;;;;;;;5.45;2.53;;;;;;;-0.55;77.71;102244.06;5307620;28;20020;-68
2022/04/03 01:29:48;;;;;;;4.90;2.58;;;;;;;-0.58;79.00;102244.13;5307990;28;20054;-69
2022/04/03 01:32:20;;;;;;;6.18;2.50;;;;;;;-0.62;78.95;102245.03;5307402;28;20024;-68
2022/04/03 01:34:51;;;;;;;5.07;3.05;;;;;;;-0.74;79.49;102238.38;5307258;28;20116;-68
2022/04/03 01:37:25;;;;;;;6.20;3.10;;;;;;;-0.70;79.51;102240.03;5305543;28;20119;-68
2022/04/03 01:39:56;;;;;;;5.90;3.40;;;;;;;-0.71;79.47;102242.63;5307812;28;20080;-68
2022/04/03 01:42:28;;;;;;;5.47;3.35;;;;;;;-0.75;78.76;102234.94;5305413;28;20389;-68
2022/04/03 01:44:59;;;;;;;7.18;3.92;;;;;;;-0.75;79.40;102237.53;5309225;28;20031;-68
2022/04/03 01:47:31;;;;;;;7.95;3.80;;;;;;;-0.84;79.90;102237.66;5308189;28;20024;-68
2022/04/03 01:50:04;;;;;;;7.45;3.67;;;;;;;-0.80;80.21;102233.31;5307935;28;20058;-68
2022/04/03 01:52:35;;;;;;;6.03;3.65;;;;;;;-0.79;80.54;102225.56;5307299;28;20055;-69
2022/04/03 01:55:07;;;;;;;6.70;3.60;;;;;;;-0.81;80.57;102240.19;5304526;28;20062;-68
2022/04/03 01:57:38;;;;;;;7.57;3.60;;;;;;;-0.89;80.54;102234.31;5309162;28;20027;-68
2022/04/03 02:00:11;;;;;;;6.35;3.42;;;;;;;-0.91;80.60;102238.63;5306504;28;20477;-70
2022/04/03 02:02:43;;;;;;;7.68;3.25;;;;;;;-0.92;80.54;102236.06;5305289;28;20422;-68
2022/04/03 02:05:14;;;;;;;7.20;3.33;;;;;;;-0.93;80.67;102235.22;5303461;28;20026;-69
2022/04/03 02:07:45;;;;;;;5.40;3.20;;;;;;;-0.98;81.65;102231.88;5307320;28;20027;-68
2022/04/03 02:10:16;;;;;;;10.48;3.65;;;;;;;-1.00;80.88;102225.88;5306655;28;20114;-68
2022/04/03 02:12:48;;;;;;;6.13;3.20;;;;;;;-1.04;80.72;102224.22;5309568;28;20035;-68
2022/04/03 02:15:19;;;;;;;6.82;3.45;;;;;;;-1.08;81.91;102217.44;5307312;28;20027;-68
2022/04/03 02:17:50;;;;;;;6.30;3.28;;;;;;;-1.06;82.16;102223.41;5309505;28;20051;-68
2022/04/03 02:20:22;;;;;;;6.40;3.55;;;;;;;-1.03;82.12;102225.94;5311734;28;20035;-68
2022/04/03 02:22:53;;;;;;;6.88;3.58;;;;;;;-1.07;82.76;102226.84;5308669;28;20118;-68
2022/04/03 02:25:25;;;;;;;6.18;3.35;;;;;;;-1.06;81.64;102224.28;5306428;28;20028;-68
2022/04/03 02:27:59;;;;;;;5.70;3.60;;;;;;;-1.09;81.43;102223.47;5304410;28;21144;-69
2022/04/03 02:30:30;;;;;;;;;;;;;;;-0.63;78.07;102218.47;5302062;28;20125;-68
2022/04/03 02:33:01;;;;;;;6.70;3.05;;;;;;;-1.13;80.66;102226.94;5306280;28;20369;-68
2022/04/03 02:35:34;;;;;;;6.13;3.47;;;;;;;-1.10;81.24;102227.75;5305467;28;20023;-70
2022/04/03 02:38:05;;;;;;;5.22;3.30;;;;;;;-1.13;81.36;102216.66;5306553;28;20043;-68
2022/04/03 02:40:37;;;;;;;5.97;3.53;;;;;;;-1.13;82.50;102220.09;5305778;28;20032;-68
2022/04/03 02:43:08;;;;;;;8.10;3.17;;;;;;;-1.15;81.57;102215.81;5310172;28;20027;-68
2022/04/03 02:45:39;;;;;;;5.25;3.10;;;;;;;-1.25;82.14;102215.97;5307109;28;20034;-69
2022/04/03 02:48:10;;;;;;;6.85;3.33;;;;;;;-1.26;82.48;102221.09;5305632;28;20034;-68
2022/04/03 02:50:42;;;;;;;7.55;3.38;;;;;;;-1.34;83.71;102228.06;5307781;28;20118;-69
2022/04/03 02:53:13;;;;;;;7.13;3.60;;;;;;;-1.36;84.85;102228.09;5307866;28;20020;-68
2022/04/03 02:55:44;;;;;;;5.72;3.25;;;;;;;-1.37;84.20;102231.53;5310929;28;20081;-70
2022/04/03 02:58:15;;;;;;;6.53;3.60;;;;;;;-1.36;84.08;102229.84;5305045;28;20122;-68
2022/04/03 03:00:47;;;;;;;6.70;3.35;;;;;;;-1.40;83.26;102234.16;5304329;28;20841;-69
2022/04/03 03:03:18;;;;;;;5.78;3.30;;;;;;;-1.37;83.88;102228.09;5308051;28;20030;-69
2022/04/03 03:05:49;;;;;;;5.13;3.22;;;;;;;-1.41;84.17;102232.44;5305628;28;20015;-68
2022/04/03 03:08:21;;;;;;;6.07;3.40;;;;;;;-1.41;84.06;102232.44;5302438;28;20023;-69
2022/04/03 03:10:52;;;;;;;6.32;3.83;;;;;;;-1.42;84.11;102240.19;5308886;28;20019;-69
2022/04/03 03:13:23;;;;;;;6.93;3.97;;;;;;;-1.41;84.83;102236.72;5306192;28;20023;-68
2022/04/03 03:15:55;;;;;;;5.35;3.00;;;;;;;-1.43;84.00;102244.47;5302895;28;20034;-69
2022/04/03 03:18:26;;;;;;;5.95;3.50;;;;;;;-1.41;84.70;102236.72;5302883;28;20116;-68
2022/04/03 03:20:57;;;;;;;6.68;3.20;;;;;;;-1.48;84.88;102241.09;5306135;28;20027;-69
2022/04/03 03:23:29;;;;;;;6.57;3.13;;;;;;;-1.44;84.87;102244.47;5306128;28;20467;-69
2022/04/03 03:26:00;;;;;;;5.35;3.47;;;;;;;-1.50;85.22;102233.41;5306371;28;20026;-68
2022/04/03 03:28:32;;;;;;;5.65;3.65;;;;;;;-1.51;84.80;102247.16;5307311;28;20573;-68
2022/04/03 03:31:03;;;;;;;5.28;2.88;;;;;;;-1.53;84.47;102241.16;5309490;28;20058;-69
2022/04/03 03:33:35;;;;;;;7.15;3.22;;;;;;;-1.55;85.21;102244.63;5306195;28;20449;-69
2022/04/03 03:36:09;;;;;;;6.03;3.33;;;;;;;-1.57;85.25;102248.94;5305851;28;20063;-69
2022/04/03 03:38:40;;;;;;;5.97;3.45;;;;;;;-1.56;85.73;102246.31;5303098;28;20027;-68
2022/04/03 03:41:14;;;;;;;5.95;3.25;;;;;;;-1.56;85.35;102242.91;5303588;28;20035;-69
2022/04/03 03:43:45;;;;;;;5.38;3.00;;;;;;;-1.59;85.43;102236.09;5306928;28;20085;-69
2022/04/03 03:46:17;;;;;;;5.47;3.30;;;;;;;-1.60;86.54;102247.22;5307528;28;20103;-69
2022/04/03 03:48:48;;;;;;;4.63;3.00;;;;;;;-1.54;85.38;102243.75;5308272;28;20031;-69
2022/04/03 03:51:19;;;;;;;7.78;3.03;;;;;;;-1.60;85.34;102236.94;5303414;28;20028;-69
2022/04/03 03:53:50;;;;;;;7.53;3.25;;;;;;;-1.54;85.48;102243.75;5305854;28;20027;-69
2022/04/03 03:56:22;;;;;;;8.27;3.42;;;;;;;-1.59;86.29;102240.38;5305710;28;20028;-68
2022/04/03 03:58:54;;;;;;;5.53;3.78;;;;;;;-1.57;86.68;102241.22;5304816;28;20016;-68
2022/04/03 04:01:26;;;;;;;5.93;2.97;;;;;;;-1.60;85.13;102243.81;5292411;28;20031;-69
2022/04/03 04:03:58;;;;;;;6.33;3.47;;;;;;;-1.60;85.01;102248.97;5308755;28;20042;-69
2022/04/03 04:06:29;;;;;;;5.15;3.10;;;;;;;-1.68;85.76;102253.34;5307358;28;20274;-69
2022/04/03 04:09:00;;;;;;;8.27;3.47;;;;;;;-1.70;85.83;102245.66;5302965;28;20435;-69
2022/04/03 04:11:32;;;;;;;5.13;3.42;;;;;;;-1.72;85.11;102245.66;5305202;28;20423;-69
2022/04/03 04:14:03;;;;;;;5.50;3.50;;;;;;;-1.71;85.37;102247.34;5307098;28;20020;-70
2022/04/03 04:16:34;;;;;;;5.25;3.20;;;;;;;-1.75;85.88;102245.69;5305098;28;20522;-68
2022/04/03 04:19:06;;;;;;;7.43;3.50;;;;;;;-1.67;87.05;102247.31;5302864;28;20040;-70
2022/04/03 04:21:38;;;;;;;6.78;3.47;;;;;;;-1.72;85.35;102255.09;5304304;28;20060;-69
2022/04/03 04:24:10;;;;;;;5.55;3.47;;;;;;;-1.79;85.99;102248.31;5304575;28;20035;-69
2022/04/03 04:26:41;;;;;;;7.18;3.25;;;;;;;-1.84;86.25;102243.22;5305567;28;20099;-69
2022/04/03 04:29:12;;;;;;;5.40;3.38;;;;;;;-1.81;87.04;102248.34;5304556;28;20020;-69
2022/04/03 04:31:44;;;;;;;6.72;3.33;;;;;;;-1.82;87.24;102256.03;5302027;28;20388;-69
2022/04/03 04:34:17;;;;;;;6.07;3.80;;;;;;;-1.82;86.31;102256.03;5304524;28;20020;-70
2022/04/03 04:36:48;;;;;;;6.05;3.17;;;;;;;-1.82;85.64;102250.91;5307629;28;20032;-69
2022/04/03 04:39:21;;;;;;;7.15;3.42;;;;;;;-1.89;86.79;102255.28;5308628;28;20035;-69
2022/04/03 04:41:52;;;;;;;6.20;3.25;;;;;;;-1.88;86.35;102258.69;5303757;28;20034;-69
2022/04/03 04:44:24;;;;;;;6.80;3.25;;;;;;;-1.83;88.89;102265.47;5304422;28;20032;-69
2022/04/03 04:46:55;;;;;;;6.10;3.97;;;;;;;-1.88;88.21;102262.13;5308309;28;20028;-69
2022/04/03 04:49:26;;;;;;;6.72;4.60;;;;;;;-1.89;89.67;102260.41;5302045;28;20718;-69
2022/04/03 04:51:57;;;;;;;6.20;3.85;;;;;;;-1.91;88.39;102256.16;5308056;28;20019;-69
2022/04/03 04:54:30;;;;;;;8.68;3.80;;;;;;;-1.94;88.48;102263.88;5306033;28;20455;-70
2022/04/03 04:57:01;;;;;;;5.72;3.60;;;;;;;-1.95;89.14;102255.34;5307595;28;20023;-69
2022/04/03 04:59:33;;;;;;;5.90;3.33;;;;;;;-1.99;89.82;102257.09;5303857;28;20035;-69
2022/04/03 05:02:05;;;;;;;5.57;3.60;;;;;;;-1.95;89.07;102263.03;5303022;28;20461;-69
2022/04/03 05:04:36;;;;;;;7.38;3.47;;;;;;;-1.98;89.17;102273.34;5304959;28;20059;-69
2022/04/03 05:07:11;;;;;;;7.75;3.80;;;;;;;-1.91;90.56;102274.97;5303028;28;20055;-69
2022/04/03 05:09:44;;;;;;;6.05;3.30;;;;;;;-2.00;90.36;102282.78;5306882;28;20031;-69
2022/04/03 05:12:16;;;;;;;7.40;4.55;;;;;;;-1.97;90.51;102283.63;5306461;28;20020;-70
2022/04/03 05:14:48;;;;;;;8.05;4.22;;;;;;;-1.96;92.31;102279.31;5307646;28;20038;-69
2022/04/03 05:17:19;;;;;;;6.80;3.88;;;;;;;-1.91;91.91;102282.69;5308756;28;20453;-69
2022/04/03 05:19:51;;;;;;;5.78;3.42;;;;;;;-1.90;91.62;102284.38;5307348;28;20074;-69
2022/04/03 05:22:23;;;;;;;8.30;3.97;;;;;;;-1.91;92.24;102281.84;5308901;28;20023;-69
2022/04/03 05:24:54;;;;;;;5.82;3.50;;;;;;;-1.86;91.67;102280.06;5307129;28;20023;-69
2022/04/03 05:27:26;;;;;;;6.25;3.72;;;;;;;-1.88;92.19;102286.94;5309844;28;20598;-69
2022/04/03 05:29:57;;;;;;;6.78;3.72;;;;;;;-1.90;91.72;102284.38;5306779;28;20028;-69
2022/04/03 05:32:31;;;;;;;5.38;3.85;;;;;;;-1.82;92.46;102290.31;5307298;28;20031;-69
2022/04/03 05:35:04;;;;;;;5.43;3.85;;;;;;;-1.82;92.19;102292.88;5309557;28;20117;-69
2022/04/03 05:37:37;;;;;;;5.72;3.30;;;;;;;-1.76;91.80;102292.81;5303804;28;20066;-69
2022/04/03 05:40:11;;;;;;;8.07;4.40;;;;;;;-1.68;91.46;102300.44;5304063;28;20078;-70
2022/04/03 05:42:43;;;;;;;6.20;3.58;;;;;;;-1.71;92.23;102298.72;5304820;28;20027;-69
2022/04/03 05:45:14;;;;;;;6.40;3.35;;;;;;;-1.60;92.31;102297.78;5310029;28;20076;-69
2022/04/03 05:47:45;;;;;;;5.07;3.60;;;;;;;-1.58;93.67;102308.91;5309408;28;20262;-68
2022/04/03 05:50:16;;;;;;;6.53;3.45;;;;;;;-1.51;92.55;102302.84;5305319;28;20566;-69
2022/04/03 05:52:50;;;;;;;5.60;3.45;;;;;;;-1.44;92.94;102306.16;5307548;28;20031;-68
2022/04/03 05:55:22;;;;;;;5.95;3.80;;;;;;;-1.43;92.74;102303.59;5325049;27;20032;-69
2022/04/03 05:57:53;;;;;;;9.07;4.20;;;;;;;-1.33;93.37;102304.31;5305562;28;20035;-69
2022/04/03 06:00:25;;;;;;;5.95;3.53;;;;;;;-1.28;93.66;102294.84;5304844;28;20081;-69
2022/04/03 06:02:59;;;;;;;7.35;3.05;;;;;;;-1.18;94.95;102313.56;5310459;28;20024;-68
2022/04/03 06:05:34;;;;;;;6.28;3.40;;;;;;;-1.12;94.58;102305.78;5305698;28;20039;-68
2022/04/03 06:08:06;;;;;;;7.40;3.75;;;;;;;-1.08;94.67;102310.88;5308694;28;20015;-68
2022/04/03 06:10:37;;;;;;;8.13;3.92;;;;;;;-1.01;94.13;102312.50;5308132;28;20040;-69
2022/04/03 06:13:12;;;;;;;8.20;3.72;;;;;;;-0.93;93.67;102309.81;5309939;28;20034;-68
2022/04/03 06:15:46;;;;;;;8.98;4.15;;;;;;;-0.80;94.45;102318.22;5309080;28;20016;-68
2022/04/03 06:18:21;;;;;;;5.70;4.00;;;;;;;-0.77;95.04;102313.03;5303108;28;20059;-68
2022/04/03 06:20:52;;;;;;;6.13;3.75;;;;;;;-0.68;94.68;102322.34;5305960;28;20020;-68
2022/04/03 06:23:24;;;;;;;8.70;4.20;;;;;;;-0.59;94.75;102319.66;5308674;28;20031;-69
2022/04/03 06:25:57;;;;;;;7.55;4.60;;;;;;;-0.54;95.23;102315.28;5304742;28;20030;-68
2022/04/03 06:28:28;;;;;;;8.63;3.67;;;;;;;-0.44;94.76;102319.41;5309175;28;20055;-68
2022/04/03 06:31:00;;;;;;;7.63;3.80;;;;;;;-0.38;94.59;102323.59;5308090;28;20011;-68
2022/04/03 06:33:31;;;;;;;5.80;3.55;;;;;;;-0.34;94.45;102317.53;5305098;28;20035;-68
2022/04/03 06:36:03;;;;;;;7.53;3.92;;;;;;;-0.27;94.42;102308.84;5307606;28;20043;-68
2022/04/03 06:38:34;;;;;;;5.40;3.60;;;;;;;-0.20;95.35;102314.75;5305957;28;20381;-68
2022/04/03 06:41:07;;;;;;;5.85;3.83;;;;;;;-0.21;95.02;102313.06;5306333;28;20050;-69
2022/04/03 06:43:38;;;;;;;8.63;4.00;;;;;;;-0.15;95.22;102311.22;5308228;28;20024;-69
2022/04/03 06:46:10;;;;;;;7.80;4.22;;;;;;;-0.08;96.05;102306.81;5307103;28;20521;-68
2022/04/03 06:48:41;;;;;;;6.72;3.90;;;;;;;0.01;96.51;102309.25;5302542;28;20152;-68
2022/04/03 06:51:12;;;;;;;5.72;3.92;;;;;;;0.11;95.93;102307.34;5304640;28;20671;-68
2022/04/03 06:53:44;;;;;;;6.32;3.70;;;;;;;0.20;95.13;102315.78;5304393;28;20015;-68
2022/04/03 06:56:15;;;;;;;7.13;4.43;;;;;;;0.28;96.32;102304.47;5306181;28;20030;-69
2022/04/03 06:58:46;;;;;;;10.75;4.22;;;;;;;0.39;95.60;102308.56;5305145;28;20036;-68
2022/04/03 07:01:18;;;;;;;7.55;4.60;;;;;;;0.43;96.55;102307.59;5305502;28;20012;-68
2022/04/03 07:03:50;;;;;;;9.70;5.22;;;;;;;0.60;98.34;102307.28;5310722;28;20084;-69
2022/04/03 07:06:21;;;;;;;9.50;5.25;;;;;;;0.65;99.13;102309.78;5303906;28;20378;-68
2022/04/03 07:08:53;;;;;;;6.57;4.80;;;;;;;0.87;100.00;102312.75;5306131;28;20125;-69
2022/04/03 07:11:24;;;;;;;8.90;5.05;;;;;;;0.95;99.94;102316.03;5307823;28;20043;-68
2022/04/03 07:13:56;;;;;;;7.07;5.15;;;;;;;1.08;99.83;102308.88;5303242;28;20023;-68
2022/04/03 07:16:27;;;;;;;10.93;5.65;;;;;;;1.24;99.92;102317.13;5301979;28;20148;-68
2022/04/03 07:18:58;;;;;;;9.18;5.70;;;;;;;1.38;99.67;102312.50;5303721;28;20063;-68
2022/04/03 07:21:30;;;;;;;10.50;5.65;;;;;;;1.43;98.30;102316.66;5303578;28;20044;-69
2022/04/03 07:24:01;;;;;;;9.57;5.80;;;;;;;1.56;99.57;102312.09;5299859;28;20462;-68
2022/04/03 07:26:33;;;;;;;8.13;5.90;;;;;;;1.70;99.10;102314.31;5303318;28;20123;-68
2022/04/03 07:29:05;;;;;;;9.05;5.85;;;;;;;1.84;100.00;102312.25;5304861;28;20054;-67
2022/04/03 07:31:36;;;;;;;12.77;6.93;;;;;;;2.03;99.72;102314.38;5300709;28;20108;-68
2022/04/03 07:34:07;;;;;;;8.38;6.03;;;;;;;2.14;99.33;102322.72;5290631;28;20040;-69
2022/04/03 07:36:39;;;;;;;9.32;6.22;;;;;;;2.37;100.00;102322.09;5303214;28;20573;-69
2022/04/03 07:39:11;;;;;;;11.00;6.45;;;;;;;2.47;97.92;102320.13;5302705;28;20024;-68
2022/04/03 07:41:42;;;;;;;9.13;5.55;;;;;;;2.59;95.69;102330.13;5304908;28;20019;-68
2022/04/03 07:44:13;;;;;;;9.35;6.43;;;;;;;2.72;96.12;102321.13;5303433;28;20410;-69
2022/04/03 07:46:44;;;;;;;7.85;5.90;;;;;;;2.91;95.36;102316.28;5299731;28;20032;-69
2022/04/03 07:49:16;;;;;;;10.60;5.50;;;;;;;3.01;94.38;102322.88;5302026;28;20377;-68
2022/04/03 07:51:48;;;;;;;8.02;5.10;;;;;;;3.15;92.33;102319.91;5298019;28;20059;-68
2022/04/03 07:54:19;;;;;;;6.75;5.03;;;;;;;3.41;93.81;102327.72;5304000;28;20387;-69
2022/04/03 07:56:51;;;;;;;8.07;5.03;;;;;;;3.46;91.49;102319.78;5306708;28;20107;-68
2022/04/03 07:59:22;;;;;;;6.30;4.80;;;;;;;3.67;91.15;102326.03;5303380;28;20039;-69
2022/04/03 08:01:53;;;;;;;7.25;4.40;;;;;;;3.82;89.56;102322.09;5300876;28;20058;-69
2022/04/03 08:04:24;;;;;;;9.13;4.53;;;;;;;3.98;89.58;102320.72;5305353;28;20335;-68
2022/04/03 08:06:56;;;;;;;10.23;4.40;;;;;;;4.10;87.52;102322.88;5304405;28;20016;-68
2022/04/03 08:09:27;;;;;;;7.85;4.45;;;;;;;4.27;83.24;102324.88;5304401;28;20116;-68
2022/04/03 08:11:58;;;;;;;7.95;3.63;;;;;;;4.35;80.10;102322.00;5306529;28;20024;-68
2022/04/03 08:14:30;;;;;;;9.98;3.45;;;;;;;4.47;78.22;102324.19;5302435;28;20115;-68
2022/04/03 08:17:01;;;;;;;4.28;2.17;;;;;;;4.51;73.42;102322.31;5300821;28;20043;-69
2022/04/03 08:19:32;;;;;;;6.45;2.30;;;;;;;4.60;73.17;102322.84;5305739;28;20076;-68
2022/04/03 08:22:03;;;;;;;4.97;2.30;;;;;;;4.82;74.40;102325.50;5304274;28;20020;-68
2022/04/03 08:24:35;;;;;;;4.13;2.00;;;;;;;4.92;69.71;102327.75;5306410;28;20060;-68
2022/04/03 08:27:07;;;;;;;6.20;2.17;;;;;;;5.02;66.34;102316.97;5304627;28;20020;-68
2022/04/03 08:29:40;;;;;;;3.10;1.77;;;;;;;5.23;69.00;102324.88;5305734;28;20043;-68
2022/04/03 08:32:13;;;;;;;5.07;1.35;;;;;;;5.35;64.86;102326.97;5302474;28;20023;-68
2022/04/03 08:34:44;;;;;;;4.10;1.50;;;;;;;5.55;64.76;102339.19;5302811;28;20027;-69
2022/04/03 08:37:16;;;;;;;6.30;2.00;;;;;;;5.70;65.33;102332.53;5298129;28;20036;-69
2022/04/03 08:39:47;;;;;;;3.20;1.70;;;;;;;5.77;63.17;102328.78;5304332;28;20039;-68
2022/04/03 08:42:19;;;;;;;4.20;1.70;;;;;;;5.73;62.48;102316.81;5306806;28;20386;-68
2022/04/03 08:44:50;;;;;;;5.93;1.50;;;;;;;5.95;63.10;102322.84;5306055;28;20024;-68
2022/04/03 08:47:24;;;;;;;3.80;1.10;;;;;;;6.00;60.94;102325.25;5308548;28;20334;-68
2022/04/03 08:50:00;;;;;;;4.32;1.15;;;;;;;6.13;61.57;102325.56;5308091;28;20024;-70
2022/04/03 08:52:32;;;;;;;3.90;1.77;;;;;;;6.21;62.02;102331.28;5310726;28;20032;-69
2022/04/03 08:55:05;;;;;;;5.00;1.60;;;;;;;6.32;61.46;102340.31;5307685;28;20023;-68
2022/04/03 08:57:36;;;;;;;4.50;1.90;;;;;;;6.45;60.56;102332.00;5306063;28;20035;-68
2022/04/03 09:00:09;;;;;;;3.75;1.75;;;;;;;6.42;60.40;102335.59;5305058;28;20369;-68
2022/04/03 09:02:42;;;;;;;6.17;1.70;;;;;;;6.55;61.51;102333.28;5306117;28;20551;-68
2022/04/03 09:05:17;;;;;;;5.93;2.30;;;;;;;6.83;60.87;102327.69;5305462;28;20296;-70
2022/04/03 09:08:00;;;;;;;4.93;1.85;;;;;;;7.01;59.79;102326.88;5306390;28;20028;-69
2022/04/03 09:10:31;;;;;;;5.35;1.67;;;;;;;7.17;58.89;102323.53;5309499;28;20027;-69
2022/04/03 09:13:03;;;;;;;5.35;1.90;;;;;;;7.27;58.09;102322.16;5307306;28;20028;-68
2022/04/03 09:15:34;;;;;;;3.25;1.70;;;;;;;7.42;57.50;102328.44;5303646;28;20117;-69
2022/04/03 09:18:08;;;;;;;2.80;1.30;;;;;;;7.54;55.32;102326.09;5305377;28;20031;-71
2022/04/03 09:20:40;;;;;;;3.78;1.73;;;;;;;7.77;57.32;102322.34;5304631;28;20039;-67
2022/04/03 09:23:17;;;;;;;4.20;1.63;;;;;;;8.00;53.99;102316.00;5304404;28;20032;-68
2022/04/03 09:25:48;;;;;;;3.75;1.70;;;;;;;7.98;53.96;102314.38;5303250;28;20143;-67
2022/04/03 09:28:20;;;;;;;4.57;1.70;;;;;;;7.87;55.05;102311.44;5303102;28;20024;-70
2022/04/03 09:30:51;;;;;;;4.15;1.70;;;;;;;7.84;54.14;102316.81;5302384;28;20035;-70
2022/04/03 09:33:23;;;;;;;3.88;1.80;;;;;;;7.97;53.74;102307.47;5304259;28;20070;-67
2022/04/03 09:36:02;;;;;;;2.95;1.63;;;;;;;8.24;54.16;102311.28;5301838;28;20644;-70
2022/04/03 09:38:35;;;;;;;3.15;1.52;;;;;;;8.28;52.66;102302.34;5304342;28;20492;-70
2022/04/03 09:41:07;;;;;;;4.53;1.63;;;;;;;8.32;52.57;102310.03;5306194;28;20027;-70
2022/04/03 09:43:40;;;;;;;3.85;1.50;;;;;;;8.12;52.45;102311.06;5312556;28;20024;-71
2022/04/03 09:46:13;;;;;;;3.00;0.90;;;;;;;7.89;50.81;102304.41;5304467;28;20098;-71
2022/04/03 09:48:44;;;;;;;3.20;1.30;;;;;;;7.96;51.29;102300.56;5304968;28;20375;-69
2022/04/03 09:51:22;;;;;;;3.63;1.08;;;;;;;8.22;51.32;102307.03;5305872;28;20553;-71
2022/04/03 09:54:00;;;;;;;2.83;1.05;;;;;;;8.35;50.17;102295.06;5306543;28;20024;-72
2022/04/03 09:56:34;;;;;;;2.90;1.08;;;;;;;8.50;48.58;102291.69;5305147;28;20020;-67
2022/04/03 09:59:07;;;;;;;3.83;1.27;;;;;;;8.70;48.67;102292.38;5306945;28;20028;-66
2022/04/03 10:01:41;;;;;;;1.90;0.88;;;;;;;8.83;50.53;102293.41;5304315;28;20039;-70
2022/04/03 10:04:14;;;;;;;2.92;0.82;;;;;;;8.99;49.21;102278.56;5290925;28;20060;-68
2022/04/03 10:06:45;;;;;;;3.55;1.13;;;;;;;9.30;48.37;102276.03;5291425;28;20576;-71
2022/04/03 10:09:18;;;;;;;2.92;1.13;;;;;;;9.07;47.31;102279.91;5291608;28;20047;-68
2022/04/03 10:11:49;;;;;;;2.53;1.00;;;;;;;8.82;46.29;102281.25;5298836;28;20497;-68
2022/04/03 10:14:21;;;;;;;3.60;1.00;;;;;;;8.65;46.14;102282.19;5299998;28;20104;-67
2022/04/03 10:16:53;;;;;;;2.97;0.70;;;;;;;8.58;46.58;102272.13;5302390;28;20027;-68
2022/04/03 10:19:24;;;;;;;2.13;0.93;;;;;;;8.71;45.42;102271.41;5309529;28;20054;-68
2022/04/03 10:21:57;;;;;;;1.95;0.70;;;;;;;8.73;45.32;102268.69;5308580;28;20027;-68
2022/04/03 10:24:30;;;;;;;;;;;;;;;9.10;48.20;102269.31;5307097;28;20020;-69
2022/04/03 10:27:19;;;;;;;3.05;1.20;;;;;;;8.80;48.49;102264.84;5306778;28;20042;-71
2022/04/03 10:29:55;;;;;;;3.38;1.20;;;;;;;8.95;46.81;102263.16;5306115;28;20026;-70
2022/04/03 10:32:33;;;;;;;3.42;1.25;;;;;;;9.22;47.79;102258.16;5309636;28;20484;-71
2022/04/03 10:35:10;;;;;;;3.13;1.10;;;;;;;9.38;45.33;102256.34;5304947;28;20604;-70
2022/04/03 10:37:43;;;;;;;2.13;1.00;;;;;;;9.30;44.99;102266.41;5310682;28;20114;-71
2022/04/03 10:40:16;;;;;;;1.88;0.65;;;;;;;9.19;44.03;102263.53;5305371;28;20508;-71
2022/04/03 10:43:02;;;;;;;2.13;0.90;;;;;;;9.31;44.48;102269.84;5303825;28;20028;-71
2022/04/03 10:45:37;;;;;;;2.28;1.05;;;;;;;9.11;43.69;102260.53;5307509;28;20457;-71
2022/04/03 10:48:20;;;;;;;2.03;0.73;;;;;;;9.25;45.02;102257.97;5307322;27;20018;-67
2022/04/03 10:51:00;;;;;;;4.57;1.00;;;;;;;9.47;46.51;102252.34;5296723;28;20025;-69
2022/04/03 10:53:34;;;;;;;4.20;1.50;;;;;;;9.63;45.13;102257.56;5309691;28;20023;-70
2022/04/03 10:56:19;;;;;;;2.75;1.00;;;;;;;9.69;44.93;102258.00;5310602;28;20042;-71
2022/04/03 10:58:54;;;;;;;2.28;1.00;;;;;;;9.53;45.75;102241.53;5307410;28;20515;-70
2022/04/03 11:01:33;;;;;;;2.88;1.17;;;;;;;9.41;47.02;102243.09;5302533;28;20047;-71
2022/04/03 11:04:12;;;;;;;2.70;1.00;;;;;;;9.31;46.29;102241.91;5297123;28;20103;-70
2022/04/03 11:06:48;;;;;;;4.07;1.30;;;;;;;9.12;46.25;102247.34;5298350;28;20032;-70
2022/04/03 11:09:24;;;;;;;4.20;1.33;;;;;;;9.15;46.82;102246.34;5301383;28;20077;-71
2022/04/03 11:11:59;;;;;;;3.28;1.23;;;;;;;9.13;46.87;102241.22;5314284;28;20048;-69
2022/04/03 11:14:56;;;;;;;2.28;0.90;;;;;;;9.39;46.40;102233.63;5304960;28;20049;-70
2022/04/03 11:17:51;;;;;;;4.80;0.98;;;;;;;9.43;45.33;102232.53;5308658;28;20071;-70
2022/04/03 11:20:29;;;;;;;2.35;1.00;;;;;;;9.39;44.61;102234.47;5303475;28;20136;-71
2022/04/03 11:23:01;;;;;;;2.97;1.00;;;;;;;9.32;44.63;102234.91;5302147;28;20028;-70
2022/04/03 11:25:33;;;;;;;2.53;1.17;;;;;;;9.31;44.99;102234.06;5303995;28;20040;-68
2022/04/03 11:28:06;;;;;;;2.55;0.80;;;;;;;9.18;45.27;102227.88;5308929;28;20384;-69
2022/04/03 11:30:37;;;;;;;;;;;;;;;9.67;45.34;102219.81;5310369;28;20635;-69
2022/04/03 11:33:10;;;;;;;2.20;1.05;;;;;;;9.13;46.16;102222.03;5301696;28;20006;-69
2022/04/03 11:35:42;;;;;;;2.60;1.20;;;;;;;9.06;47.13;102220.72;5308079;28;20088;-69
2022/04/03 11:38:15;;;;;;;5.28;1.27;;;;;;;8.98;46.88;102213.31;5302654;28;20475;-70
2022/04/03 11:40:49;;;;;;;2.90;1.10;;;;;;;8.96;47.06;102212.56;5301659;28;20024;-67
2022/04/03 11:43:20;;;;;;;2.50;1.10;;;;;;;8.94;46.55;102217.88;5298659;28;20443;-70
2022/04/03 11:46:00;;;;;;;4.72;1.55;;;;;;;9.12;47.84;102217.75;5309613;28;20024;-70
2022/04/03 11:48:33;;;;;;;2.70;1.40;;;;;;;8.89;46.81;102212.03;5309466;28;20085;-70
2022/04/03 11:51:06;;;;;;;1.90;1.15;;;;;;;8.81;47.08;102211.63;5301353;28;20027;-70
2022/04/03 11:53:40;;;;;;;2.53;1.08;;;;;;;8.77;46.47;102210.13;5308326;28;20389;-70